Time;durP1;ratioP1;P1;durP2;ratioP2;P2;SDS_P1;SDS_P2;PMS_P1;PMS_P2;Temp;Humidity;BMP_temperature;BMP_pressure;BME280_temperature;BME280_humidity;BME280_pressure;Samples;Min_cycle;Max_cycle;Signal;HPM_P1;HPM_P2
2023/02/21 02:15:41;;;;;;;3.97;3.20;;;;;;;;;;5072777;28;20404;-90
2023/02/21 02:18:07;;;;;;;4.27;3.33;;;;;;;;;;5051029;28;20396;-91
2023/02/21 02:20:52;;;;;;;3.30;3.00;;;;;;;;;;5054742;28;20933;-92
2023/02/21 02:23:29;;;;;;;3.42;3.13;;;;;;;;;;5067763;28;20495;-92
2023/02/21 02:26:11;;;;;;;4.05;2.78;;;;;;;;;;5054870;28;20848;-92
2023/02/21 02:28:43;;;;;;;3.42;2.97;;;;;;;;;;5054297;28;20387;-91
2023/02/21 02:31:20;;;;;;;3.00;2.80;;;;;;;;;;5072375;28;20394;-93
2023/02/21 02:34:00;;;;;;;3.40;2.90;;;;;;;;;;5056077;28;20414;-92
2023/02/21 02:36:29;;;;;;;3.45;2.83;;;;;;;;;;5051460;28;20398;-92
2023/02/21 02:38:55;;;;;;;3.08;2.78;;;;;;;;;;5052736;28;20380;-91
2023/02/21 02:41:28;;;;;;;3.15;2.72;;;;;;;;;;5071988;28;20387;-93
2023/02/21 02:44:13;;;;;;;3.00;2.80;;;;;;;;;;5054453;28;20438;-92
2023/02/21 02:46:40;;;;;;;4.80;2.95;;;;;;;;;;5054428;28;20384;-91
2023/02/21 02:49:23;;;;;;;3.42;2.97;;;;;;;;;;5072380;28;20372;-91
2023/02/21 02:51:49;;;;;;;3.60;3.30;;;;;;;;;;5054054;28;20387;-91
2023/02/21 02:54:16;;;;;;;4.15;3.35;;;;;;;;;;5060401;28;20368;-91
2023/02/21 02:56:42;;;;;;;3.57;2.90;;;;;;;;;;5072070;28;20372;-91
2023/02/21 02:59:09;;;;;;;5.13;3.10;;;;;;;;;;5054116;28;20466;-92
2023/02/21 03:01:35;;;;;;;3.45;2.83;;;;;;;;;;5054123;28;20388;-92
2023/02/21 03:04:02;;;;;;;3.40;2.80;;;;;;;;;;5071782;28;20407;-92
2023/02/21 03:06:50;;;;;;;3.10;2.80;;;;;;;;;;5069599;28;20391;-91
2023/02/21 03:09:30;;;;;;;3.10;2.80;;;;;;;;;;5054121;28;20372;-90
2023/02/21 03:12:08;;;;;;;3.83;2.67;;;;;;;;;;5053557;28;20390;-92
2023/02/21 03:14:37;;;;;;;3.60;2.83;;;;;;;;;;5047371;28;20391;-91
2023/02/21 03:17:08;;;;;;;3.30;2.80;;;;;;;;;;5053728;28;20419;-92
2023/02/21 03:19:37;;;;;;;3.30;2.80;;;;;;;;;;5070151;28;20407;-91
2023/02/21 03:22:10;;;;;;;3.22;2.53;;;;;;;;;;5053514;28;20411;-91
2023/02/21 03:24:38;;;;;;;3.83;2.92;;;;;;;;;;5072092;28;20840;-91
2023/02/21 03:27:06;;;;;;;3.10;2.80;;;;;;;;;;5053837;28;20453;-91
2023/02/21 03:29:33;;;;;;;3.00;2.50;;;;;;;;;;5072063;28;20380;-91
2023/02/21 03:34:40;;;;;;;3.03;2.70;;;;;;;;;;5070855;28;20383;-91
2023/02/21 03:37:07;;;;;;;3.10;2.80;;;;;;;;;;5061937;28;20388;-93
2023/02/21 03:39:34;;;;;;;4.43;2.78;;;;;;;;;;5054236;28;20403;-91
2023/02/21 03:42:00;;;;;;;2.78;2.50;;;;;;;;;;5053419;28;20457;-91
2023/02/21 03:44:26;;;;;;;3.63;2.90;;;;;;;;;;5071573;28;20376;-92
2023/02/21 03:46:52;;;;;;;3.03;2.72;;;;;;;;;;5053948;28;20387;-90
2023/02/21 03:49:18;;;;;;;2.83;2.55;;;;;;;;;;5073924;28;20965;-92
2023/02/21 03:51:44;;;;;;;2.58;2.30;;;;;;;;;;5057262;28;20380;-92
2023/02/21 03:54:10;;;;;;;3.28;2.47;;;;;;;;;;5057078;28;20456;-93
2023/02/21 03:56:36;;;;;;;2.40;2.20;;;;;;;;;;5057772;28;20852;-92
2023/02/21 03:59:02;;;;;;;2.42;2.20;;;;;;;;;;5058845;28;20380;-90
2023/02/21 04:01:28;;;;;;;2.58;2.35;;;;;;;;;;5055216;28;20741;-92
2023/02/21 04:03:54;;;;;;;2.70;2.50;;;;;;;;;;5054645;28;20687;-91
2023/02/21 04:06:20;;;;;;;2.27;2.07;;;;;;;;;;5047247;28;20426;-90
2023/02/21 04:08:46;;;;;;;2.45;2.25;;;;;;;;;;5054775;28;20713;-91
2023/02/21 04:11:12;;;;;;;2.50;2.30;;;;;;;;;;5057583;28;20404;-91
2023/02/21 04:13:38;;;;;;;2.40;2.20;;;;;;;;;;5055650;28;20872;-92
2023/02/21 04:16:04;;;;;;;2.92;2.05;;;;;;;;;;5057035;28;20795;-91
2023/02/21 04:18:30;;;;;;;2.28;2.08;;;;;;;;;;5051841;28;20379;-90
2023/02/21 04:20:56;;;;;;;3.40;2.47;;;;;;;;;;5052264;28;20384;-90
2023/02/21 04:23:24;;;;;;;3.22;2.28;;;;;;;;;;5048693;28;20857;-91
2023/02/21 04:25:50;;;;;;;3.00;2.30;;;;;;;;;;5078221;28;20465;-90
2023/02/21 04:28:16;;;;;;;2.72;2.53;;;;;;;;;;5052157;28;20379;-90
2023/02/21 04:30:42;;;;;;;3.28;2.78;;;;;;;;;;5055285;28;20856;-91
2023/02/21 04:33:08;;;;;;;3.10;2.70;;;;;;;;;;5054344;28;20400;-92
2023/02/21 04:35:34;;;;;;;3.20;2.80;;;;;;;;;;5056920;28;20477;-92
2023/02/21 04:38:00;;;;;;;2.70;2.50;;;;;;;;;;5054556;28;20494;-92
2023/02/21 04:40:26;;;;;;;2.40;2.20;;;;;;;;;;5054381;28;20388;-93
2023/02/21 04:42:52;;;;;;;2.80;2.50;;;;;;;;;;5051301;28;20395;-92
2023/02/21 04:45:18;;;;;;;3.00;2.60;;;;;;;;;;5056842;28;20865;-91
2023/02/21 04:47:44;;;;;;;3.72;2.78;;;;;;;;;;5056701;28;20939;-92
2023/02/21 04:50:10;;;;;;;3.78;3.10;;;;;;;;;;5056562;28;20392;-92
2023/02/21 04:52:36;;;;;;;2.97;2.43;;;;;;;;;;5056660;28;20376;-91
2023/02/21 04:55:02;;;;;;;3.33;2.65;;;;;;;;;;5056615;28;20471;-91
2023/02/21 04:57:28;;;;;;;3.17;2.40;;;;;;;;;;5056526;28;20446;-91
2023/02/21 04:59:58;;;;;;;3.33;2.38;;;;;;;;;;5055767;28;20475;-91
2023/02/21 05:02:24;;;;;;;2.55;2.35;;;;;;;;;;5056378;28;20395;-91
2023/02/21 05:04:50;;;;;;;3.00;2.67;;;;;;;;;;5056255;28;20384;-91
2023/02/21 05:07:16;;;;;;;3.13;2.80;;;;;;;;;;5056582;28;20376;-91
2023/02/21 05:09:42;;;;;;;3.30;2.70;;;;;;;;;;5074725;28;20380;-90
2023/02/21 05:12:10;;;;;;;4.90;3.30;;;;;;;;;;5055440;28;20384;-91
2023/02/21 05:14:40;;;;;;;4.10;2.83;;;;;;;;;;5056286;28;20404;-91
2023/02/21 05:17:07;;;;;;;3.40;3.10;;;;;;;;;;5056212;28;20384;-91
2023/02/21 05:19:33;;;;;;;4.37;3.23;;;;;;;;;;5056128;28;20380;-91
2023/02/21 05:22:00;;;;;;;4.00;3.20;;;;;;;;;;5055827;28;20430;-90
2023/02/21 05:24:27;;;;;;;3.25;2.95;;;;;;;;;;5055044;28;20394;-91
2023/02/21 05:26:54;;;;;;;3.72;3.00;;;;;;;;;;5056039;28;20378;-91
2023/02/21 05:29:20;;;;;;;2.90;2.60;;;;;;;;;;5060254;28;20381;-91
2023/02/21 05:31:46;;;;;;;2.92;2.72;;;;;;;;;;5057139;28;20391;-93
2023/02/21 05:34:13;;;;;;;3.13;2.83;;;;;;;;;;5073375;28;20415;-91
2023/02/21 05:36:39;;;;;;;2.90;2.60;;;;;;;;;;5055693;28;20403;-91
2023/02/21 05:39:05;;;;;;;2.80;2.58;;;;;;;;;;5073457;28;20376;-92
2023/02/21 05:41:32;;;;;;;2.85;2.65;;;;;;;;;;5053927;28;20376;-91
2023/02/21 05:43:59;;;;;;;3.22;2.85;;;;;;;;;;5055833;28;20402;-90
2023/02/21 05:46:26;;;;;;;3.85;2.92;;;;;;;;;;5055559;28;20856;-91
2023/02/21 05:48:53;;;;;;;3.20;2.72;;;;;;;;;;5054847;28;20376;-90
2023/02/21 05:51:19;;;;;;;3.65;2.50;;;;;;;;;;5055219;28;20411;-91
2023/02/21 05:53:45;;;;;;;4.13;3.22;;;;;;;;;;5055453;28;20437;-91
2023/02/21 05:56:12;;;;;;;8.40;5.67;;;;;;;;;;5055750;28;20380;-91
2023/02/21 05:58:38;;;;;;;4.85;3.65;;;;;;;;;;5055282;28;20861;-92
2023/02/21 06:01:04;;;;;;;4.05;3.60;;;;;;;;;;5054643;28;20394;-93
2023/02/21 06:03:30;;;;;;;4.00;3.60;;;;;;;;;;5054891;28;20491;-92
2023/02/21 06:05:56;;;;;;;4.15;3.08;;;;;;;;;;5073160;28;20422;-91
2023/02/21 06:08:22;;;;;;;6.00;3.60;;;;;;;;;;5055948;28;20372;-91
2023/02/21 06:10:48;;;;;;;4.00;3.22;;;;;;;;;;5054099;28;20935;-91
2023/02/21 06:13:14;;;;;;;4.38;2.97;;;;;;;;;;5053850;28;20391;-92
2023/02/21 06:15:40;;;;;;;3.83;2.95;;;;;;;;;;5073402;28;20395;-90
2023/02/21 06:18:06;;;;;;;3.30;2.78;;;;;;;;;;5055165;28;20376;-91
2023/02/21 06:20:32;;;;;;;4.15;2.80;;;;;;;;;;5055444;28;20945;-91
2023/02/21 06:22:58;;;;;;;3.20;2.50;;;;;;;;;;5055253;28;20406;-90
2023/02/21 06:25:24;;;;;;;4.25;2.80;;;;;;;;;;5055371;28;20387;-90
2023/02/21 06:27:50;;;;;;;3.28;2.97;;;;;;;;;;5055194;28;20394;-92
2023/02/21 06:30:16;;;;;;;4.50;2.95;;;;;;;;;;5055409;28;20375;-91
2023/02/21 06:32:42;;;;;;;3.65;2.78;;;;;;;;;;5054434;28;20398;-91
2023/02/21 06:35:08;;;;;;;4.05;3.55;;;;;;;;;;5054460;28;20410;-90
2023/02/21 06:37:34;;;;;;;5.30;4.22;;;;;;;;;;5055098;28;20458;-92
2023/02/21 06:40:00;;;;;;;4.35;3.40;;;;;;;;;;5054609;28;20535;-90
2023/02/21 06:42:27;;;;;;;3.78;3.47;;;;;;;;;;5053384;28;20404;-90
2023/02/21 06:44:53;;;;;;;3.88;3.45;;;;;;;;;;5054436;28;20486;-91
2023/02/21 06:53:22;;;;;;;3.03;2.50;;;;;;;;;;5454841;23;21174;-92
2023/02/21 06:55:48;;;;;;;4.70;2.92;;;;;;;;;;5013679;28;20395;-92
2023/02/21 06:58:19;;;;;;;3.17;2.70;;;;;;;;;;5015664;28;20387;-93
2023/02/21 07:00:45;;;;;;;3.40;2.60;;;;;;;;;;5018341;28;20420;-92
2023/02/21 07:03:11;;;;;;;4.82;2.85;;;;;;;;;;5020789;28;20411;-92
2023/02/21 07:05:37;;;;;;;3.15;2.50;;;;;;;;;;5047528;28;20873;-92
2023/02/21 07:08:04;;;;;;;4.30;3.00;;;;;;;;;;5038599;28;20909;-92
2023/02/21 07:10:33;;;;;;;3.17;2.88;;;;;;;;;;5066289;28;20868;-93
2023/02/21 07:13:33;;;;;;;3.27;2.97;;;;;;;;;;5063402;28;20383;-93
2023/02/21 07:16:02;;;;;;;4.20;3.03;;;;;;;;;;5050541;28;20766;-93
2023/02/21 07:18:30;;;;;;;3.63;3.00;;;;;;;;;;5050079;28;20375;-93
2023/02/21 07:20:56;;;;;;;3.57;3.27;;;;;;;;;;5051789;28;20466;-90
2023/02/21 07:23:22;;;;;;;3.42;3.00;;;;;;;;;;5051852;28;20413;-90
2023/02/21 07:25:49;;;;;;;3.77;3.20;;;;;;;;;;5054466;28;20724;-86
2023/02/21 07:28:15;;;;;;;4.63;3.30;;;;;;;;;;5037021;28;20381;-90
2023/02/21 07:30:41;;;;;;;4.53;3.72;;;;;;;;;;5054923;28;20461;-89
2023/02/21 07:33:07;;;;;;;4.53;3.50;;;;;;;;;;5054624;28;20723;-87
2023/02/21 07:35:33;;;;;;;4.93;3.70;;;;;;;;;;5052466;28;20427;-89
2023/02/21 07:37:59;;;;;;;5.45;3.88;;;;;;;;;;5035985;28;20380;-88
2023/02/21 07:40:25;;;;;;;4.85;3.78;;;;;;;;;;5053715;28;20439;-88
2023/02/21 07:42:51;;;;;;;5.53;5.13;;;;;;;;;;5053183;28;20397;-89
2023/02/21 07:45:17;;;;;;;5.68;5.18;;;;;;;;;;5054147;28;20373;-88
2023/02/21 07:47:45;;;;;;;6.40;5.38;;;;;;;;;;5055336;28;20391;-88
2023/02/21 07:50:11;;;;;;;6.18;4.75;;;;;;;;;;5035716;28;20393;-87
2023/02/21 07:52:37;;;;;;;4.25;3.85;;;;;;;;;;5053099;28;20746;-88
2023/02/21 07:55:04;;;;;;;4.75;4.10;;;;;;;;;;5053227;28;20878;-87
2023/02/21 07:57:30;;;;;;;4.60;3.92;;;;;;;;;;5053259;28;20956;-87
2023/02/21 07:59:55;;;;;;;4.28;3.90;;;;;;;;;;5053036;28;20502;-88
2023/02/21 08:02:21;;;;;;;5.47;4.75;;;;;;;;;;5066655;28;20458;-88
2023/02/21 08:04:51;;;;;;;5.43;4.80;;;;;;;;;;5050759;28;20440;-90
2023/02/21 08:07:17;;;;;;;5.38;4.88;;;;;;;;;;5053023;28;20385;-88
2023/02/21 08:09:44;;;;;;;5.28;4.63;;;;;;;;;;5049342;28;20395;-88
2023/02/21 08:12:10;;;;;;;5.90;5.30;;;;;;;;;;5045204;28;20472;-94
2023/02/21 08:14:36;;;;;;;5.60;5.10;;;;;;;;;;5037486;28;20436;-89
2023/02/21 08:17:02;;;;;;;5.73;5.23;;;;;;;;;;5055407;28;20385;-91
2023/02/21 08:19:27;;;;;;;6.07;5.50;;;;;;;;;;5054388;28;20444;-90
2023/02/21 08:21:54;;;;;;;6.60;5.90;;;;;;;;;;5054972;28;20401;-90
2023/02/21 08:24:20;;;;;;;7.35;6.60;;;;;;;;;;5067513;28;20409;-91
2023/02/21 08:26:46;;;;;;;6.97;6.18;;;;;;;;;;5019745;28;20379;-90
2023/02/21 08:29:12;;;;;;;7.65;6.95;;;;;;;;;;5044639;28;20409;-93
2023/02/21 08:31:39;;;;;;;20.33;8.02;;;;;;;;;;5047957;28;20383;-92
2023/02/21 08:34:06;;;;;;;8.30;7.40;;;;;;;;;;5023739;28;20946;-91
2023/02/21 08:36:36;;;;;;;11.38;9.35;;;;;;;;;;5051869;28;20389;-91
2023/02/21 08:39:02;;;;;;;13.88;9.43;;;;;;;;;;5034751;28;20385;-91
2023/02/21 08:41:35;;;;;;;16.27;11.00;;;;;;;;;;5055279;28;20389;-89
2023/02/21 08:44:01;;;;;;;12.73;10.25;;;;;;;;;;5051227;28;20405;-91
2023/02/21 08:46:27;;;;;;;18.02;10.10;;;;;;;;;;5034368;28;20390;-90
2023/02/21 08:48:54;;;;;;;13.00;9.80;;;;;;;;;;5052248;28;20385;-91
2023/02/21 08:51:24;;;;;;;12.48;10.35;;;;;;;;;;5052697;28;20377;-89
2023/02/21 08:53:49;;;;;;;15.35;10.60;;;;;;;;;;5052122;28;20389;-90
2023/02/21 08:56:18;;;;;;;12.50;10.23;;;;;;;;;;5052521;28;20393;-90
2023/02/21 08:58:44;;;;;;;11.65;10.45;;;;;;;;;;5051900;28;20382;-90
2023/02/21 09:01:10;;;;;;;13.18;11.80;;;;;;;;;;5051777;28;20523;-88
2023/02/21 09:03:36;;;;;;;15.88;12.85;;;;;;;;;;5051726;28;20923;-89
2023/02/21 09:06:02;;;;;;;14.83;12.60;;;;;;;;;;5052034;28;20369;-89
2023/02/21 09:08:32;;;;;;;16.48;12.25;;;;;;;;;;5051928;28;20388;-89
2023/02/21 09:11:01;;;;;;;17.50;13.50;;;;;;;;;;5051749;28;20385;-89
2023/02/21 09:13:28;;;;;;;16.67;12.98;;;;;;;;;;5051775;28;20781;-88
2023/02/21 09:15:54;;;;;;;17.30;13.88;;;;;;;;;;5033788;28;20393;-90
2023/02/21 09:18:20;;;;;;;15.90;12.93;;;;;;;;;;5051529;28;20828;-89
2023/02/21 09:20:50;;;;;;;40.33;19.90;;;;;;;;;;5045300;28;20466;-89
2023/02/21 09:23:18;;;;;;;14.13;12.45;;;;;;;;;;5051835;28;20434;-88
2023/02/21 09:25:45;;;;;;;14.43;12.95;;;;;;;;;;5052353;28;20432;-89
2023/02/21 09:28:11;;;;;;;15.10;12.68;;;;;;;;;;5052601;28;20443;-87
2023/02/21 09:30:37;;;;;;;18.88;13.43;;;;;;;;;;5042996;28;20469;-91
2023/02/21 09:33:03;;;;;;;20.73;13.98;;;;;;;;;;5048547;28;20926;-89
2023/02/21 09:35:29;;;;;;;14.23;11.88;;;;;;;;;;5047119;28;20410;-91
2023/02/21 09:37:59;;;;;;;24.70;13.68;;;;;;;;;;5025264;28;20408;-90
2023/02/21 09:40:33;;;;;;;41.90;19.50;;;;;;;;;;5028989;28;20422;-90
2023/02/21 09:43:00;;;;;;;23.77;14.55;;;;;;;;;;5039156;28;20407;-90
2023/02/21 09:45:29;;;;;;;31.38;17.75;;;;;;;;;;5049034;28;20858;-90
2023/02/21 09:47:58;;;;;;;20.75;14.52;;;;;;;;;;5058526;28;20383;-91
2023/02/21 09:50:29;;;;;;;20.70;13.80;;;;;;;;;;5041443;28;20437;-89
2023/02/21 09:52:56;;;;;;;14.32;12.50;;;;;;;;;;5049009;28;20793;-90
2023/02/21 09:55:34;;;;;;;14.60;12.40;;;;;;;;;;5049473;28;20428;-89
2023/02/21 09:58:00;;;;;;;15.10;12.43;;;;;;;;;;5051717;28;20401;-83
2023/02/21 10:00:33;;;;;;;13.52;11.70;;;;;;;;;;5051705;28;20414;-84
2023/02/21 10:02:59;;;;;;;13.82;12.07;;;;;;;;;;5039661;28;20506;-84
2023/02/21 10:05:26;;;;;;;13.53;12.13;;;;;;;;;;5048483;28;20574;-84
2023/02/21 10:08:05;;;;;;;12.63;11.35;;;;;;;;;;5034859;28;20389;-83
2023/02/21 10:10:34;;;;;;;12.87;11.33;;;;;;;;;;5036234;28;20401;-83
2023/02/21 10:13:17;;;;;;;13.00;11.65;;;;;;;;;;5035651;28;20430;-83
2023/02/21 10:15:46;;;;;;;13.75;12.10;;;;;;;;;;5035066;28;21076;-84
2023/02/21 10:18:31;;;;;;;13.95;12.50;;;;;;;;;;5024660;28;21005;-83
2023/02/21 10:21:00;;;;;;;12.98;11.77;;;;;;;;;;5030405;28;20511;-84
2023/02/21 10:23:37;;;;;;;13.32;12.00;;;;;;;;;;5027052;28;20411;-84
2023/02/21 10:26:08;;;;;;;13.35;12.00;;;;;;;;;;5039562;28;20382;-83
2023/02/21 10:28:34;;;;;;;12.98;11.88;;;;;;;;;;5051506;28;20421;-83
2023/02/21 10:31:03;;;;;;;13.38;12.07;;;;;;;;;;5051501;28;20382;-84
2023/02/21 10:33:30;;;;;;;13.82;12.60;;;;;;;;;;5052260;28;20456;-83
2023/02/21 10:35:56;;;;;;;14.03;12.63;;;;;;;;;;5051311;28;20870;-84
2023/02/21 10:38:24;;;;;;;14.55;13.10;;;;;;;;;;5051389;28;20412;-84
2023/02/21 10:40:50;;;;;;;14.20;13.00;;;;;;;;;;5051373;28;20384;-84
2023/02/21 10:43:16;;;;;;;13.55;12.23;;;;;;;;;;5047941;28;20453;-84
2023/02/21 10:45:53;;;;;;;12.63;11.63;;;;;;;;;;5051215;28;20878;-84
2023/02/21 10:48:20;;;;;;;13.10;12.10;;;;;;;;;;5051275;28;20413;-83
2023/02/21 10:50:51;;;;;;;12.40;11.40;;;;;;;;;;5051269;28;20389;-82
2023/02/21 10:53:26;;;;;;;13.05;11.82;;;;;;;;;;5051086;28;20392;-83
2023/02/21 10:56:09;;;;;;;12.68;11.50;;;;;;;;;;5051144;28;20413;-83
2023/02/21 10:58:36;;;;;;;12.83;11.73;;;;;;;;;;5050680;28;20460;-83
2023/02/21 11:01:31;;;;;;;12.43;11.23;;;;;;;;;;5050695;28;20385;-83
2023/02/21 11:03:57;;;;;;;12.90;11.60;;;;;;;;;;5029620;28;20412;-82
2023/02/21 11:06:26;;;;;;;12.38;11.18;;;;;;;;;;5051036;28;20878;-84
2023/02/21 11:08:52;;;;;;;13.27;11.23;;;;;;;;;;5051038;28;20481;-84
2023/02/21 11:11:39;;;;;;;13.43;10.98;;;;;;;;;;5051018;28;20444;-84
2023/02/21 11:14:17;;;;;;;11.18;10.25;;;;;;;;;;5050883;28;20401;-84
2023/02/21 11:16:43;;;;;;;11.73;10.73;;;;;;;;;;5050790;28;20378;-84
2023/02/21 11:19:11;;;;;;;11.10;10.10;;;;;;;;;;5044230;28;20456;-84
2023/02/21 11:21:38;;;;;;;12.13;10.93;;;;;;;;;;5018196;28;20393;-84
2023/02/21 11:24:05;;;;;;;11.85;10.75;;;;;;;;;;5036199;28;20419;-84
2023/02/21 11:26:38;;;;;;;11.43;10.40;;;;;;;;;;5046112;28;20385;-84
2023/02/21 11:29:09;;;;;;;11.23;10.30;;;;;;;;;;5050768;28;20382;-84
2023/02/21 11:31:36;;;;;;;12.35;10.60;;;;;;;;;;5050661;28;20401;-83
2023/02/21 11:34:03;;;;;;;13.38;11.55;;;;;;;;;;5050792;28;20932;-84
2023/02/21 11:36:31;;;;;;;13.27;11.93;;;;;;;;;;5050796;28;20381;-84
2023/02/21 11:39:28;;;;;;;12.30;11.20;;;;;;;;;;5052226;28;20379;-84
2023/02/21 11:42:02;;;;;;;12.17;11.17;;;;;;;;;;5034872;28;20408;-83
2023/02/21 11:44:28;;;;;;;11.67;10.77;;;;;;;;;;5050733;28;20472;-84
2023/02/21 11:47:00;;;;;;;11.45;10.27;;;;;;;;;;5049660;28;20461;-83
2023/02/21 11:49:45;;;;;;;12.32;11.18;;;;;;;;;;5049187;28;20370;-83
2023/02/21 11:52:13;;;;;;;13.98;12.07;;;;;;;;;;5050552;28;20472;-83
2023/02/21 11:54:39;;;;;;;11.43;10.43;;;;;;;;;;5032813;28;20409;-83
2023/02/21 11:57:06;;;;;;;11.40;10.13;;;;;;;;;;5042447;28;20399;-83
2023/02/21 11:59:51;;;;;;;11.63;10.32;;;;;;;;;;5040947;28;20421;-84
2023/02/21 12:02:17;;;;;;;11.13;10.13;;;;;;;;;;5044287;28;20476;-83
2023/02/21 12:04:54;;;;;;;11.07;10.07;;;;;;;;;;5043033;28;20397;-84
2023/02/21 12:07:28;;;;;;;10.98;9.98;;;;;;;;;;5049048;28;20374;-84
2023/02/21 12:10:11;;;;;;;11.65;10.52;;;;;;;;;;5045796;28;20480;-83
2023/02/21 12:12:45;;;;;;;11.70;10.65;;;;;;;;;;5049345;28;20402;-83
2023/02/21 12:15:13;;;;;;;12.83;11.60;;;;;;;;;;5045044;28;20495;-83
2023/02/21 12:17:46;;;;;;;13.60;12.10;;;;;;;;;;5051071;28;20464;-84
2023/02/21 12:20:15;;;;;;;16.95;14.45;;;;;;;;;;5052613;28;20436;-83
2023/02/21 12:22:54;;;;;;;18.27;14.75;;;;;;;;;;5052557;28;20472;-84
2023/02/21 12:25:43;;;;;;;14.43;12.70;;;;;;;;;;5053537;28;20466;-84
2023/02/21 12:28:27;;;;;;;12.30;11.10;;;;;;;;;;5040860;28;20381;-84
2023/02/21 12:31:02;;;;;;;11.73;10.63;;;;;;;;;;5053679;28;20377;-84
2023/02/21 12:33:34;;;;;;;10.38;9.38;;;;;;;;;;5053485;28;20385;-84
2023/02/21 12:36:14;;;;;;;9.95;9.05;;;;;;;;;;5053558;28;20460;-84
2023/02/21 12:38:50;;;;;;;9.68;8.82;;;;;;;;;;5053457;28;20374;-84
2023/02/21 12:41:36;;;;;;;8.70;7.90;;;;;;;;;;5041602;28;21863;-84
2023/02/21 12:44:19;;;;;;;11.70;10.50;;;;;;;;;;5044444;28;20449;-84
2023/02/21 12:46:48;;;;;;;8.20;7.38;;;;;;;;;;5040548;28;20454;-84
2023/02/21 12:49:19;;;;;;;9.73;7.72;;;;;;;;;;5054254;28;20382;-84
2023/02/21 12:51:47;;;;;;;12.63;10.73;;;;;;;;;;5053287;28;20374;-84
2023/02/21 12:54:16;;;;;;;9.10;8.27;;;;;;;;;;5052950;28;20419;-84
2023/02/21 12:57:01;;;;;;;8.88;7.95;;;;;;;;;;5053129;28;20381;-84
2023/02/21 12:59:32;;;;;;;8.02;7.22;;;;;;;;;;5034583;28;20757;-84
2023/02/21 13:02:08;;;;;;;10.68;9.48;;;;;;;;;;5052807;28;20461;-83
2023/02/21 13:04:46;;;;;;;9.45;8.55;;;;;;;;;;5053052;28;20413;-84
2023/02/21 13:07:18;;;;;;;11.20;9.80;;;;;;;;;;5052897;28;20837;-84
2023/02/21 13:09:48;;;;;;;10.63;9.50;;;;;;;;;;5039217;28;20452;-84
2023/02/21 13:12:16;;;;;;;9.35;8.60;;;;;;;;;;5052810;28;20401;-84
2023/02/21 13:14:48;;;;;;;10.20;8.90;;;;;;;;;;5052709;28;20447;-84
2023/02/21 13:17:14;;;;;;;11.02;10.02;;;;;;;;;;5052804;28;20389;-83
2023/02/21 13:20:03;;;;;;;11.27;9.75;;;;;;;;;;5052640;28;20381;-84
2023/02/21 13:25:52;;;;;;;9.55;8.63;;;;;;;;;;5053050;28;20393;-84
2023/02/21 13:28:22;;;;;;;9.85;8.95;;;;;;;;;;5052563;28;20427;-84
2023/02/21 13:30:52;;;;;;;9.45;8.45;;;;;;;;;;5052394;28;20456;-84
2023/02/21 13:33:45;;;;;;;9.60;8.70;;;;;;;;;;5052335;28;20460;-83
2023/02/21 13:36:19;;;;;;;9.07;7.82;;;;;;;;;;5052482;28;20805;-83
2023/02/21 13:38:46;;;;;;;9.73;8.70;;;;;;;;;;5052243;28;20400;-83
2023/02/21 13:41:15;;;;;;;9.73;8.88;;;;;;;;;;5052284;28;20394;-84
2023/02/21 13:43:50;;;;;;;9.75;8.75;;;;;;;;;;5052014;28;20767;-84
2023/02/21 13:46:24;;;;;;;9.38;8.30;;;;;;;;;;5046224;28;20377;-83
2023/02/21 13:49:08;;;;;;;8.68;7.70;;;;;;;;;;5052186;28;20377;-83
2023/02/21 13:51:51;;;;;;;8.57;7.78;;;;;;;;;;5036733;28;20764;-83
2023/02/21 13:54:24;;;;;;;9.07;8.18;;;;;;;;;;5051812;28;20848;-84
2023/02/21 13:56:51;;;;;;;9.38;7.88;;;;;;;;;;5052023;28;20517;-83
2023/02/21 13:59:24;;;;;;;7.75;6.97;;;;;;;;;;5051909;28;20382;-84
2023/02/21 14:01:51;;;;;;;7.70;6.80;;;;;;;;;;5051922;28;20468;-84
2023/02/21 14:04:35;;;;;;;8.70;6.57;;;;;;;;;;5051646;28;20405;-84
2023/02/21 14:07:01;;;;;;;7.65;5.80;;;;;;;;;;5051826;28;20377;-83
2023/02/21 14:09:27;;;;;;;8.05;5.32;;;;;;;;;;5034009;28;20393;-83
2023/02/21 14:11:53;;;;;;;6.80;5.38;;;;;;;;;;5051730;28;20388;-84
2023/02/21 14:14:24;;;;;;;6.75;4.97;;;;;;;;;;5051702;28;20944;-83
2023/02/21 14:17:08;;;;;;;6.45;5.65;;;;;;;;;;5051605;28;20435;-84
2023/02/21 14:19:40;;;;;;;7.10;6.40;;;;;;;;;;5051679;28;20385;-83
2023/02/21 14:22:12;;;;;;;6.78;4.90;;;;;;;;;;5051453;28;20381;-84
2023/02/21 14:24:41;;;;;;;5.95;4.50;;;;;;;;;;5051544;28;20386;-83
2023/02/21 14:27:11;;;;;;;8.90;5.37;;;;;;;;;;5051522;28;20465;-84
2023/02/21 14:29:43;;;;;;;7.10;5.00;;;;;;;;;;5051122;28;20484;-84
2023/02/21 14:32:09;;;;;;;5.43;4.70;;;;;;;;;;5051058;28;20778;-84
2023/02/21 14:34:34;;;;;;;5.97;5.00;;;;;;;;;;5050812;28;20385;-84
2023/02/21 14:37:04;;;;;;;7.57;5.20;;;;;;;;;;5051322;28;20754;-84
2023/02/21 14:39:35;;;;;;;7.80;4.70;;;;;;;;;;5051375;28;20385;-83
2023/02/21 14:42:07;;;;;;;5.40;4.70;;;;;;;;;;5049547;28;20412;-84
2023/02/21 14:44:48;;;;;;;6.75;5.18;;;;;;;;;;5047441;28;20394;-84
2023/02/21 14:47:33;;;;;;;7.72;5.13;;;;;;;;;;5045786;28;20944;-84
2023/02/21 14:50:07;;;;;;;8.80;5.60;;;;;;;;;;5032886;28;20390;-84
2023/02/21 14:52:42;;;;;;;5.78;5.18;;;;;;;;;;5037926;28;20460;-84
2023/02/21 14:55:26;;;;;;;6.35;5.47;;;;;;;;;;5046962;28;20401;-84
2023/02/21 14:58:04;;;;;;;7.15;5.40;;;;;;;;;;5046201;28;20394;-84
2023/02/21 15:00:30;;;;;;;8.68;6.30;;;;;;;;;;5038508;28;20381;-84
2023/02/21 15:03:02;;;;;;;7.57;5.50;;;;;;;;;;5051282;28;20983;-84
2023/02/21 15:05:31;;;;;;;6.00;5.22;;;;;;;;;;5049845;28;20430;-84
2023/02/21 15:08:00;;;;;;;9.57;5.63;;;;;;;;;;5045649;28;20377;-84
2023/02/21 15:10:28;;;;;;;6.78;5.85;;;;;;;;;;5033296;28;20409;-84
2023/02/21 15:13:01;;;;;;;6.97;5.40;;;;;;;;;;5038531;28;20714;-84
2023/02/21 15:15:31;;;;;;;5.95;5.35;;;;;;;;;;5044556;28;20392;-84
2023/02/21 15:18:09;;;;;;;7.57;5.70;;;;;;;;;;5044597;28;20395;-85
2023/02/21 15:20:36;;;;;;;7.47;5.95;;;;;;;;;;5032994;28;20379;-84
2023/02/21 15:23:18;;;;;;;5.83;5.13;;;;;;;;;;5030829;28;20843;-84
2023/02/21 15:25:44;;;;;;;7.45;5.35;;;;;;;;;;5038085;28;20379;-84
2023/02/21 15:28:19;;;;;;;6.28;5.13;;;;;;;;;;5040181;28;20389;-84
2023/02/21 15:30:54;;;;;;;7.03;5.15;;;;;;;;;;5050827;28;20846;-83
2023/02/21 15:33:22;;;;;;;6.13;4.70;;;;;;;;;;5050782;28;20373;-84
2023/02/21 15:35:50;;;;;;;5.70;4.95;;;;;;;;;;5035303;28;20391;-83
2023/02/21 15:38:21;;;;;;;5.88;4.60;;;;;;;;;;5035826;28;20378;-84
2023/02/21 15:40:48;;;;;;;7.28;4.97;;;;;;;;;;5037879;28;20421;-84
2023/02/21 15:43:22;;;;;;;7.38;4.43;;;;;;;;;;5047018;28;20495;-83
2023/02/21 15:45:49;;;;;;;5.55;5.00;;;;;;;;;;5054166;28;20408;-83
2023/02/21 15:48:15;;;;;;;5.95;4.68;;;;;;;;;;5043654;28;20389;-83
2023/02/21 15:50:43;;;;;;;7.22;4.90;;;;;;;;;;5044316;28;20383;-84
2023/02/21 15:53:11;;;;;;;6.88;4.90;;;;;;;;;;5053597;28;20392;-83
2023/02/21 15:55:37;;;;;;;7.35;4.90;;;;;;;;;;5047956;28;20391;-83
2023/02/21 15:58:06;;;;;;;6.88;4.78;;;;;;;;;;5033715;28;20401;-88
2023/02/21 16:00:32;;;;;;;5.47;4.85;;;;;;;;;;5032332;28;20421;-91
2023/02/21 16:03:17;;;;;;;5.50;4.07;;;;;;;;;;5036141;28;20448;-87
2023/02/21 16:05:43;;;;;;;5.70;4.40;;;;;;;;;;5054193;28;20470;-86
2023/02/21 16:08:13;;;;;;;4.68;3.38;;;;;;;;;;5054076;28;20381;-84
2023/02/21 16:10:42;;;;;;;5.47;3.08;;;;;;;;;;5054035;28;20378;-84
2023/02/21 16:13:08;;;;;;;4.80;2.60;;;;;;;;;;5053911;28;20382;-83
2023/02/21 16:15:35;;;;;;;3.25;2.28;;;;;;;;;;5034755;28;20904;-83
2023/02/21 16:18:03;;;;;;;3.92;2.30;;;;;;;;;;5048855;28;20385;-83
2023/02/21 16:20:37;;;;;;;6.25;2.45;;;;;;;;;;5039343;28;20389;-82
2023/02/21 16:23:22;;;;;;;3.92;2.60;;;;;;;;;;5052211;28;20409;-83
2023/02/21 16:26:16;;;;;;;7.22;3.60;;;;;;;;;;5054246;28;20401;-82
2023/02/21 16:28:44;;;;;;;7.75;3.75;;;;;;;;;;5051452;28;20393;-83
2023/02/21 16:31:30;;;;;;;8.33;4.60;;;;;;;;;;5053691;28;20389;-85
2023/02/21 16:33:56;;;;;;;6.22;3.72;;;;;;;;;;5053419;28;20381;-85
2023/02/21 16:36:27;;;;;;;4.87;3.20;;;;;;;;;;5053240;28;20541;-83
2023/02/21 16:38:53;;;;;;;5.50;3.22;;;;;;;;;;5052794;28;20417;-82
2023/02/21 16:41:19;;;;;;;5.30;3.42;;;;;;;;;;5035147;28;20389;-85
2023/02/21 16:43:46;;;;;;;6.68;3.67;;;;;;;;;;5053306;28;20464;-85
2023/02/21 16:46:12;;;;;;;8.57;4.22;;;;;;;;;;5053397;28;20416;-85
2023/02/21 16:48:38;;;;;;;7.07;4.45;;;;;;;;;;5052713;28;20377;-85
2023/02/21 16:51:06;;;;;;;10.60;4.82;;;;;;;;;;5052314;28;20386;-86
2023/02/21 16:53:33;;;;;;;11.80;4.68;;;;;;;;;;5053098;28;20428;-87
2023/02/21 16:56:00;;;;;;;7.75;3.80;;;;;;;;;;5051843;28;20901;-84
2023/02/21 16:58:29;;;;;;;8.75;3.97;;;;;;;;;;5050013;28;20386;-84
2023/02/21 17:00:56;;;;;;;10.65;3.88;;;;;;;;;;5053084;28;20735;-85
2023/02/21 17:03:22;;;;;;;8.50;3.42;;;;;;;;;;5052420;28;20405;-85
2023/02/21 17:05:50;;;;;;;9.30;3.65;;;;;;;;;;5052862;28;20508;-85
2023/02/21 17:08:16;;;;;;;8.90;4.38;;;;;;;;;;5052635;28;20400;-87
2023/02/21 17:10:42;;;;;;;8.87;3.47;;;;;;;;;;5052935;28;20377;-85
2023/02/21 17:13:08;;;;;;;7.45;3.35;;;;;;;;;;5052777;28;20378;-91
2023/02/21 17:15:34;;;;;;;7.80;3.50;;;;;;;;;;5052960;28;20385;-85
2023/02/21 17:18:00;;;;;;;5.75;3.05;;;;;;;;;;5052921;28;20870;-88